createdAt,value
2023-01-04T00:02:14.641Z,99233.47
2023-01-04T00:04:42.729Z,99233.47
2023-01-04T00:07:11.141Z,99222.00
2023-01-04T00:09:40.181Z,99237.22
2023-01-04T00:12:08.967Z,99225.53
2023-01-04T00:14:37.172Z,99233.03
2023-01-04T00:17:05.924Z,99233.66
2023-01-04T00:19:36.515Z,99225.72
2023-01-04T00:22:04.719Z,99234.03
2023-01-04T00:24:32.909Z,99248.19
2023-01-04T00:27:02.492Z,99244.44
2023-01-04T00:29:33.238Z,99235.06
2023-01-04T00:32:01.430Z,99241.72
2023-01-04T00:34:29.564Z,99238.59
2023-01-04T00:37:00.557Z,99235.47
2023-01-04T00:39:29.653Z,99239.63
2023-01-04T00:42:06.040Z,99248.53
2023-01-04T00:44:34.924Z,99231.06
2023-01-04T00:47:05.232Z,99234.53
2023-01-04T00:49:33.678Z,99238.06
2023-01-04T00:52:07.426Z,99236.59
2023-01-04T00:54:36.021Z,99230.72
2023-01-04T00:57:05.455Z,99229.00
2023-01-04T00:59:33.783Z,99229.00
2023-01-04T01:02:02.028Z,99254.97
2023-01-04T01:04:30.969Z,99249.09
2023-01-04T01:06:59.769Z,99256.56
2023-01-04T01:09:30.114Z,99247.41
2023-01-04T01:11:59.732Z,99264.03
2023-01-04T01:14:27.783Z,99259.03
2023-01-04T01:16:58.552Z,99254.00
2023-01-04T01:19:28.916Z,99252.75
2023-01-04T01:21:59.051Z,99258.94
2023-01-04T01:24:30.079Z,99248.75
2023-01-04T01:27:02.923Z,99256.84
2023-01-04T01:29:31.336Z,99249.16
2023-01-04T01:32:02.821Z,99259.91
2023-01-04T01:34:33.415Z,99272.59
2023-01-04T01:37:02.849Z,99275.88
2023-01-04T01:39:31.082Z,99276.69
2023-01-04T01:41:59.905Z,99277.53
2023-01-04T01:44:46.685Z,99268.00
2023-01-04T01:47:18.923Z,99277.19
2023-01-04T01:49:48.323Z,99280.09
2023-01-04T01:52:18.155Z,99274.28
2023-01-04T01:54:47.468Z,99285.94
2023-01-04T01:57:18.185Z,99283.88
2023-01-04T01:59:47.540Z,99281.38
2023-01-04T02:02:17.347Z,99293.00
2023-01-04T02:04:47.819Z,99287.22
2023-01-04T02:07:18.183Z,99286.38
2023-01-04T02:09:46.931Z,99292.22
2023-01-04T02:12:15.804Z,99288.47
2023-01-04T02:14:45.580Z,99290.56
2023-01-04T02:17:18.301Z,99296.78
2023-01-04T02:19:58.142Z,99300.97
2023-01-04T02:22:50.280Z,99290.41
2023-01-04T02:25:29.518Z,99292.47
2023-01-04T02:27:59.118Z,99306.28
2023-01-04T02:30:36.897Z,99296.22
2023-01-04T02:33:12.646Z,99291.41
2023-01-04T02:35:43.854Z,99295.72
2023-01-04T02:38:16.368Z,99294.91
2023-01-04T02:40:48.128Z,99295.69
2023-01-04T02:43:36.242Z,99294.00
2023-01-04T02:46:06.062Z,99294.84
2023-01-04T02:48:56.775Z,99306.28
2023-01-04T02:51:29.180Z,99318.75
2023-01-04T02:53:57.970Z,99316.31
2023-01-04T02:56:36.569Z,99320.28
2023-01-04T02:59:11.486Z,99325.69
2023-01-04T03:02:01.050Z,99336.50
2023-01-04T03:04:58.137Z,99338.19
2023-01-04T03:07:31.681Z,99343.19
2023-01-04T03:10:03.935Z,99334.44
2023-01-04T03:12:35.577Z,99328.47
2023-01-04T03:15:08.361Z,99331.59
2023-01-04T03:17:39.167Z,99341.38
2023-01-04T03:20:11.160Z,99327.59
2023-01-04T03:22:58.396Z,99330.31
2023-01-04T03:25:44.695Z,99324.91
2023-01-04T03:28:32.558Z,99338.22
2023-01-04T03:31:20.763Z,99327.00
2023-01-04T03:34:07.245Z,99337.41
2023-01-04T03:36:50.664Z,99344.22
2023-01-04T03:39:42.519Z,99340.03
2023-01-04T03:42:33.089Z,99351.22
2023-01-04T03:45:25.780Z,99341.50
2023-01-04T03:48:18.722Z,99340.88
2023-01-04T03:50:49.151Z,99331.41
2023-01-04T03:53:17.157Z,99343.44
2023-01-04T03:55:47.293Z,99341.31
2023-01-04T03:58:16.119Z,99357.44
2023-01-04T04:00:44.518Z,99347.84
2023-01-04T04:03:12.701Z,99342.03
2023-01-04T04:05:59.355Z,99336.63
2023-01-04T04:08:29.037Z,99340.72
2023-01-04T04:11:19.746Z,99342.13
2023-01-04T04:13:48.123Z,99337.75
2023-01-04T04:16:16.408Z,99340.66
2023-01-04T04:18:45.036Z,99348.88
2023-01-04T04:21:13.149Z,99349.72
2023-01-04T04:23:41.574Z,99346.00
2023-01-04T04:26:11.181Z,99353.91
2023-01-04T04:28:39.643Z,99355.81
2023-01-04T04:31:07.786Z,99353.94
2023-01-04T04:33:35.842Z,99353.78
2023-01-04T04:36:03.976Z,99357.75
2023-01-04T04:38:32.132Z,99345.50
2023-01-04T04:41:26.201Z,99360.91
2023-01-04T04:43:56.424Z,99368.63
2023-01-04T04:46:24.807Z,99375.69
2023-01-04T04:48:53.193Z,99373.00
2023-01-04T04:51:21.393Z,99381.53
2023-01-04T04:53:50.594Z,99381.53
2023-01-04T04:56:18.898Z,99380.31
2023-01-04T04:58:47.403Z,99384.03
2023-01-04T05:01:17.055Z,99379.03
2023-01-04T05:03:45.541Z,99378.66
2023-01-04T05:06:13.807Z,99390.31
2023-01-04T05:08:42.268Z,99390.69
2023-01-04T05:11:12.100Z,99395.50
2023-01-04T05:13:39.587Z,99406.94
2023-01-04T05:16:08.902Z,99398.84
2023-01-04T05:18:38.520Z,99414.66
2023-01-04T05:21:06.898Z,99423.13
2023-01-04T05:23:35.115Z,99419.88
2023-01-04T05:26:03.856Z,99433.53
2023-01-04T05:28:31.996Z,99432.34
2023-01-04T05:30:59.049Z,99430.50
2023-01-04T05:33:28.200Z,99436.34
2023-01-04T05:35:58.876Z,99445.59
2023-01-04T05:38:27.416Z,99448.09
2023-01-04T05:40:55.737Z,99458.69
2023-01-04T05:43:25.529Z,99459.72
2023-01-04T05:45:54.609Z,99445.13
2023-01-04T05:48:23.513Z,99456.31
2023-01-04T05:50:51.798Z,99457.97
2023-01-04T05:53:21.389Z,99445.88
2023-01-04T05:55:49.933Z,99448.31
2023-01-04T05:58:18.285Z,99453.31
2023-01-04T06:00:46.395Z,99453.69
2023-01-04T06:03:14.929Z,99454.56
2023-01-04T06:05:43.231Z,99472.41
2023-01-04T06:08:11.222Z,99465.91
2023-01-04T06:10:41.042Z,99469.44
2023-01-04T06:13:09.134Z,99470.75
2023-01-04T06:15:42.840Z,99471.97
2023-01-04T06:18:13.761Z,99476.59
2023-01-04T06:20:43.997Z,99486.09
2023-01-04T06:23:12.151Z,99491.59
2023-01-04T06:25:41.793Z,99487.38
2023-01-04T06:28:09.907Z,99492.41
2023-01-04T06:30:38.136Z,99517.28
2023-01-04T06:33:06.464Z,99518.09
2023-01-04T06:35:36.135Z,99507.97
2023-01-04T06:38:04.267Z,99508.97
2023-01-04T06:40:32.385Z,99500.25
2023-01-04T06:43:02.217Z,99506.75
2023-01-04T06:45:30.561Z,99497.81
2023-01-04T06:47:58.592Z,99504.88
2023-01-04T06:50:26.783Z,99498.19
2023-01-04T06:52:54.779Z,99503.78
2023-01-04T06:55:22.941Z,99495.59
2023-01-04T06:57:55.023Z,99498.94
2023-01-04T07:00:28.776Z,99498.56
2023-01-04T07:03:14.464Z,99488.53
2023-01-04T07:05:43.873Z,99500.97
2023-01-04T07:08:12.623Z,99498.41
2023-01-04T07:10:40.984Z,99506.13
2023-01-04T07:13:09.611Z,99501.75
2023-01-04T07:15:40.900Z,99505.00
2023-01-04T07:18:09.807Z,99513.19
2023-01-04T07:20:38.387Z,99526.50
2023-01-04T07:23:06.736Z,99522.22
2023-01-04T07:25:34.759Z,99516.44
2023-01-04T07:28:02.891Z,99527.63
2023-01-04T07:30:31.551Z,99521.84
2023-01-04T07:33:01.127Z,99514.38
2023-01-04T07:35:29.229Z,99519.06
2023-01-04T07:37:59.000Z,99524.28
2023-01-04T07:40:27.871Z,99538.22
2023-01-04T07:42:57.182Z,99533.66
2023-01-04T07:45:25.711Z,99550.31
2023-01-04T07:47:53.794Z,99557.41
2023-01-04T07:50:23.596Z,99546.22
2023-01-04T07:52:52.175Z,99551.63
2023-01-04T07:55:20.236Z,99543.91
2023-01-04T07:57:48.593Z,99561.41
2023-01-04T08:00:17.021Z,99565.75
2023-01-04T08:02:45.233Z,99582.81
2023-01-04T08:05:14.894Z,99580.09
2023-01-04T08:07:44.888Z,99589.41
2023-01-04T08:10:13.654Z,99587.72
2023-01-04T08:12:42.041Z,99594.06
2023-01-04T08:15:10.447Z,99595.63
2023-01-04T08:17:38.676Z,99602.34
2023-01-04T08:20:07.582Z,99599.53
2023-01-04T08:22:35.809Z,99601.41
2023-01-04T08:25:06.178Z,99613.59
2023-01-04T08:27:34.240Z,99611.75
2023-01-04T08:30:02.471Z,99616.28
2023-01-04T08:32:31.735Z,99612.75
2023-01-04T08:35:00.026Z,99621.94
2023-01-04T08:37:28.506Z,99633.41
2023-01-04T08:39:56.557Z,99626.31
2023-01-04T08:42:31.202Z,99638.25
2023-01-04T08:45:01.730Z,99622.88
2023-01-04T08:47:30.418Z,99629.69
2023-01-04T08:50:00.408Z,99636.03
2023-01-04T08:52:30.442Z,99641.88
2023-01-04T08:54:59.172Z,99656.56
2023-01-04T08:57:28.703Z,99669.06
2023-01-04T08:59:56.755Z,99681.22
2023-01-04T09:02:26.694Z,99691.38
2023-01-04T09:04:59.740Z,99692.22
2023-01-04T09:07:30.541Z,99682.97
2023-01-04T09:10:00.821Z,99688.00
2023-01-04T09:12:30.785Z,99704.75
2023-01-04T09:14:59.170Z,99709.97
2023-01-04T09:17:27.344Z,99716.03
2023-01-04T09:19:55.417Z,99721.44
2023-01-04T09:22:23.584Z,99717.50
2023-01-04T09:24:51.662Z,99726.66
2023-01-04T09:27:20.045Z,99730.53
2023-01-04T09:29:49.591Z,99747.75
2023-01-04T09:32:17.943Z,99738.63
2023-01-04T09:34:46.417Z,99748.41
2023-01-04T09:37:14.462Z,99739.28
2023-01-04T09:39:42.499Z,99746.25
2023-01-04T09:42:18.017Z,99740.00
2023-01-04T09:47:41.021Z,99745.53
2023-01-04T09:50:14.161Z,99753.44
2023-01-04T09:52:47.765Z,99757.81
2023-01-04T09:55:39.684Z,99754.94
2023-01-04T09:58:10.116Z,99754.09
2023-01-04T10:00:43.910Z,99752.06
2023-01-04T10:03:16.763Z,99749.00
2023-01-04T10:05:45.849Z,99740.91
2023-01-04T10:08:16.690Z,99750.97
2023-01-04T10:10:49.025Z,99752.28
2023-01-04T10:13:23.851Z,99751.94
2023-01-04T10:15:55.572Z,99759.38
2023-01-04T10:21:40.406Z,99758.34
2023-01-04T10:24:25.153Z,99763.66
2023-01-04T10:26:57.521Z,99761.72
2023-01-04T10:29:40.149Z,99776.09
2023-01-04T10:32:14.199Z,99782.88
2023-01-04T10:34:45.203Z,99795.00
2023-01-04T10:37:14.971Z,99794.63
2023-01-04T10:39:43.744Z,99804.41
2023-01-04T10:42:15.977Z,99796.31
2023-01-04T10:44:48.362Z,99788.22
2023-01-04T10:47:21.160Z,99800.31
2023-01-04T10:49:53.853Z,99799.72
2023-01-04T10:52:24.496Z,99801.72
2023-01-04T10:54:54.135Z,99811.03
2023-01-04T10:57:25.271Z,99827.56
2023-01-04T10:59:56.349Z,99830.56
2023-01-04T11:02:28.866Z,99837.56
2023-01-04T11:05:01.468Z,99839.56
2023-01-04T11:07:32.881Z,99845.47
2023-01-04T11:10:04.035Z,99832.16
2023-01-04T11:12:32.824Z,99834.16
2023-01-04T11:15:00.907Z,99826.44
2023-01-04T11:17:29.748Z,99827.81
2023-01-04T11:19:59.449Z,99821.47
2023-01-04T11:22:30.988Z,99820.97
2023-01-04T11:27:52.700Z,99815.06
2023-01-04T11:30:22.912Z,99820.22
2023-01-04T11:32:54.217Z,99818.53
2023-01-04T11:35:42.593Z,99821.84
2023-01-04T11:38:13.189Z,99812.53
2023-01-04T11:40:41.435Z,99809.59
2023-01-04T11:43:16.697Z,99820.59
2023-01-04T11:45:54.408Z,99821.22
2023-01-04T11:48:32.196Z,99805.50
2023-01-04T11:51:02.071Z,99808.00
2023-01-04T11:53:32.132Z,99802.97
2023-01-04T11:56:14.418Z,99796.75
2023-01-04T11:58:43.154Z,99813.72
2023-01-04T12:01:21.506Z,99823.44
2023-01-04T12:03:49.903Z,99821.09
2023-01-04T12:06:21.078Z,99816.72
2023-01-04T12:08:49.616Z,99815.88
2023-01-04T12:11:23.587Z,99825.31
2023-01-04T12:13:51.753Z,99828.59
2023-01-04T12:16:24.131Z,99816.19
2023-01-04T12:18:52.537Z,99835.22
2023-01-04T12:21:23.068Z,99829.59
2023-01-04T12:23:51.856Z,99841.91
2023-01-04T12:26:20.343Z,99834.81
2023-01-04T12:28:49.475Z,99836.34
2023-01-04T12:31:30.432Z,99827.22
2023-01-04T12:33:59.295Z,99838.03
2023-01-04T12:36:46.219Z,99837.16
2023-01-04T12:39:41.552Z,99837.00
2023-01-04T12:42:13.282Z,99840.13
2023-01-04T12:44:58.607Z,99843.22
2023-01-04T12:48:03.357Z,99848.53
2023-01-04T12:50:32.359Z,99854.34
2023-01-04T12:53:29.023Z,99854.34
2023-01-04T12:55:53.040Z,99854.72
2023-01-04T13:01:29.895Z,99857.47
2023-01-04T13:04:05.058Z,99862.06
2023-01-04T13:06:35.821Z,99858.59
2023-01-04T13:09:04.412Z,99855.25
2023-01-04T13:11:40.965Z,99854.25
2023-01-04T13:14:11.384Z,99866.63
2023-01-04T13:16:45.835Z,99865.06
2023-01-04T13:19:18.453Z,99870.56
2023-01-04T13:21:47.559Z,99867.09
2023-01-04T13:24:20.916Z,99874.19
2023-01-04T13:26:49.582Z,99864.88
2023-01-04T13:29:19.316Z,99869.81
2023-01-04T13:31:51.148Z,99880.53
2023-01-04T13:34:20.674Z,99869.34
2023-01-04T13:37:02.222Z,99878.28
2023-01-04T13:39:30.699Z,99866.53
2023-01-04T13:41:59.227Z,99868.19
2023-01-04T13:45:09.209Z,99862.06
2023-01-04T13:47:29.440Z,99872.59
2023-01-04T13:49:57.821Z,99863.00
2023-01-04T13:52:50.591Z,99873.72
2023-01-04T13:55:27.410Z,99877.34
2023-01-04T13:57:57.474Z,99872.75
2023-01-04T14:00:26.966Z,99887.50
2023-01-04T14:03:08.922Z,99890.59
2023-01-04T14:05:37.602Z,99893.47
2023-01-04T14:08:11.372Z,99899.28
2023-01-04T14:10:44.609Z,99885.56
2023-01-04T14:13:16.681Z,99895.91
2023-01-04T14:15:45.665Z,99899.28
2023-01-04T14:18:31.645Z,99907.59
2023-01-04T14:21:00.402Z,99929.63
2023-01-04T14:23:30.382Z,99917.38
2023-01-04T14:25:59.203Z,99921.97
2023-01-04T14:28:29.262Z,99930.16
2023-01-04T14:30:58.178Z,99922.31
2023-01-04T14:33:32.432Z,99921.09
2023-01-04T14:36:05.996Z,99939.41
2023-01-04T14:38:37.641Z,99942.66
2023-01-04T14:41:14.463Z,99945.72
2023-01-04T14:43:47.204Z,99956.38
2023-01-04T14:46:16.327Z,99956.38
2023-01-04T14:48:46.572Z,99963.25
2023-01-04T14:51:17.222Z,99972.09
2023-01-04T14:53:46.639Z,99956.53
2023-01-04T14:56:15.643Z,99974.88
2023-01-04T14:58:44.824Z,99983.81
2023-01-04T15:01:13.615Z,99994.66
2023-01-04T15:03:42.444Z,100000.78
2023-01-04T15:06:13.887Z,100012.75
2023-01-04T15:08:42.427Z,100011.59
2023-01-04T15:11:11.308Z,100024.75
2023-01-04T15:13:40.566Z,100026.81
2023-01-04T15:16:11.811Z,100027.09
2023-01-04T15:18:40.534Z,100030.53
2023-01-04T15:21:09.586Z,100029.69
2023-01-04T15:23:39.926Z,100024.28
2023-01-04T15:26:08.301Z,100025.84
2023-01-04T15:28:36.896Z,100027.81
2023-01-04T15:31:07.783Z,100028.31
2023-01-04T15:33:36.594Z,100028.84
2023-01-04T15:36:07.226Z,100030.91
2023-01-04T15:38:36.090Z,100041.53
2023-01-04T15:41:08.802Z,100052.53
2023-01-04T15:43:36.570Z,100051.19
2023-01-04T15:46:07.437Z,100041.16
2023-01-04T15:48:36.031Z,100048.91
2023-01-04T15:51:08.077Z,100055.38
2023-01-04T15:53:36.231Z,100056.06
2023-01-04T15:56:10.478Z,100060.69
2023-01-04T15:58:38.919Z,100058.53
2023-01-04T16:01:10.052Z,100077.09
2023-01-04T16:03:38.130Z,100067.66
2023-01-04T16:06:07.439Z,100078.81
2023-01-04T16:08:35.520Z,100079.84
2023-01-04T16:11:11.407Z,100072.78
2023-01-04T16:13:39.889Z,100091.66
2023-01-04T16:16:08.661Z,100079.53
2023-01-04T16:18:37.688Z,100075.50
2023-01-04T16:21:10.401Z,100085.28
2023-01-04T16:23:39.464Z,100074.34
2023-01-04T16:26:09.445Z,100076.69
2023-01-04T16:28:39.519Z,100063.72
2023-01-04T16:31:09.295Z,100058.69
2023-01-04T16:33:38.629Z,100062.53
2023-01-04T16:36:08.395Z,100071.47
2023-01-04T16:38:37.485Z,100067.28
2023-01-04T16:41:07.358Z,100064.72
2023-01-04T16:43:43.741Z,100065.56
2023-01-04T16:46:26.179Z,100078.22
2023-01-04T16:48:55.718Z,100088.84
2023-01-04T16:51:25.060Z,100082.97
2023-01-04T16:53:53.923Z,100094.94
2023-01-04T16:56:22.948Z,100101.16
2023-01-04T16:58:52.619Z,100097.00
2023-01-04T17:01:26.170Z,100109.78
2023-01-04T17:03:56.059Z,100109.28
2023-01-04T17:06:25.512Z,100120.41
2023-01-04T17:08:54.654Z,100117.72
2023-01-04T17:14:15.044Z,100135.59
2023-01-04T17:16:46.386Z,100141.84
2023-01-04T17:19:16.090Z,100164.66
2023-01-04T17:21:46.284Z,100154.84
2023-01-04T17:24:15.581Z,100178.63
2023-01-04T17:26:44.391Z,100169.00
2023-01-04T17:29:13.501Z,100175.75
2023-01-04T17:31:43.415Z,100176.97
2023-01-04T17:34:22.020Z,100174.09
2023-01-04T17:36:51.472Z,100172.41
2023-01-04T17:39:21.167Z,100173.41
2023-01-04T17:41:49.796Z,100175.09
2023-01-04T17:44:17.857Z,100172.06
2023-01-04T17:46:46.307Z,100182.19
2023-01-04T17:49:27.540Z,100194.16
2023-01-04T17:51:58.004Z,100189.44
2023-01-04T17:54:29.238Z,100195.69
2023-01-04T17:56:57.797Z,100197.03
2023-01-04T17:59:27.301Z,100200.09
2023-01-04T18:01:56.326Z,100209.53
2023-01-04T18:04:26.759Z,100219.63
2023-01-04T18:06:55.698Z,100221.31
2023-01-04T18:09:25.686Z,100221.31
2023-01-04T18:11:54.396Z,100229.06
2023-01-04T18:14:23.414Z,100237.50
2023-01-04T18:16:58.619Z,100241.22
2023-01-04T18:19:30.019Z,100244.25
2023-01-04T18:21:58.760Z,100243.44
2023-01-04T18:24:37.355Z,100243.44
2023-01-04T18:27:24.908Z,100240.91
2023-01-04T18:29:55.230Z,100235.16
2023-01-04T18:32:24.219Z,100233.13
2023-01-04T18:34:54.093Z,100239.38
2023-01-04T18:37:22.702Z,100233.13
2023-01-04T18:39:51.483Z,100260.25
2023-01-04T18:42:19.960Z,100261.09
2023-01-04T18:44:49.953Z,100268.19
2023-01-04T18:47:20.282Z,100275.78
2023-01-04T18:49:49.647Z,100279.16
2023-01-04T18:52:20.161Z,100286.41
2023-01-04T18:54:48.890Z,100285.41
2023-01-04T18:57:17.479Z,100284.72
2023-01-04T18:59:50.161Z,100293.31
2023-01-04T19:02:19.713Z,100295.50
2023-01-04T19:04:48.890Z,100298.38
2023-01-04T19:07:17.799Z,100303.13
2023-01-04T19:09:48.128Z,100308.50
2023-01-04T19:12:16.596Z,100305.97
2023-01-04T19:14:45.415Z,100302.63
2023-01-04T19:17:14.395Z,100308.00
2023-01-04T19:19:43.403Z,100303.97
2023-01-04T19:22:12.547Z,100310.03
2023-01-04T19:24:42.316Z,100307.34
2023-01-04T19:27:12.891Z,100320.66
2023-01-04T19:29:42.252Z,100316.78
2023-01-04T19:32:11.227Z,100320.00
2023-01-04T19:34:40.005Z,100321.19
2023-01-04T19:37:09.506Z,100310.38
2023-01-04T19:39:37.889Z,100320.00
2023-01-04T19:42:06.246Z,100317.47
2023-01-04T19:44:35.759Z,100301.63
2023-01-04T19:47:03.962Z,100302.28
2023-01-04T19:49:32.438Z,100308.19
2023-01-04T19:52:00.550Z,100310.06
2023-01-04T19:54:28.629Z,100311.75
2023-01-04T19:56:57.080Z,100322.53
2023-01-04T19:59:25.839Z,100306.69
2023-01-04T20:01:56.621Z,100313.44
2023-01-04T20:04:27.627Z,100305.13
2023-01-04T20:06:56.149Z,100302.81
2023-01-04T20:09:27.689Z,100300.56
2023-01-04T20:11:56.005Z,100305.66
2023-01-04T20:14:27.490Z,100291.47
2023-01-04T20:16:57.308Z,100311.72
2023-01-04T20:19:25.462Z,100312.41
2023-01-04T20:21:55.583Z,100300.56
2023-01-04T20:24:29.018Z,100292.66
2023-01-04T20:27:03.732Z,100301.22
2023-01-04T20:29:36.397Z,100314.03
2023-01-04T20:32:08.259Z,100330.88
2023-01-04T20:34:44.433Z,100332.56
2023-01-04T20:37:19.790Z,100331.19
2023-01-04T20:39:49.489Z,100322.06
2023-01-04T20:42:37.212Z,100337.22
2023-01-04T20:45:10.984Z,100340.94
2023-01-04T20:47:42.204Z,100347.19
2023-01-04T20:50:15.477Z,100349.72
2023-01-04T20:52:44.524Z,100363.56
2023-01-04T20:55:17.563Z,100368.09
2023-01-04T20:57:50.688Z,100369.28
2023-01-04T21:00:24.132Z,100366.28
2023-01-04T21:03:01.439Z,100363.75
2023-01-04T21:05:34.748Z,100376.75
2023-01-04T21:08:07.367Z,100369.13
2023-01-04T21:10:44.990Z,100373.03
2023-01-04T21:13:14.894Z,100373.03
2023-01-04T21:15:43.104Z,100383.81
2023-01-04T21:18:18.396Z,100384.16
2023-01-04T21:20:54.489Z,100382.78
2023-01-04T21:23:24.834Z,100384.47
2023-01-04T21:26:00.716Z,100386.19
2023-01-04T21:28:36.802Z,100397.63
2023-01-04T21:31:15.428Z,100390.72
2023-01-04T21:33:48.961Z,100396.44
2023-01-04T21:36:18.138Z,100395.59
2023-01-04T21:38:52.994Z,100397.97
2023-01-04T21:41:25.066Z,100398.13
2023-01-04T21:43:54.569Z,100410.09
2023-01-04T21:46:23.180Z,100410.41
2023-01-04T21:48:54.393Z,100411.41
2023-01-04T21:51:23.141Z,100405.97
2023-01-04T21:53:51.205Z,100409.38
2023-01-04T21:56:20.512Z,100417.78
2023-01-04T21:58:48.732Z,100412.06
2023-01-04T22:01:18.129Z,100418.94
2023-01-04T22:03:46.765Z,100420.81
2023-01-04T22:06:16.582Z,100422.16
2023-01-04T22:08:45.181Z,100418.44
2023-01-04T22:11:13.484Z,100420.47
2023-01-04T22:13:41.650Z,100419.44
2023-01-04T22:16:11.157Z,100412.75
2023-01-04T22:18:39.590Z,100419.50
2023-01-04T22:21:09.377Z,100419.19
2023-01-04T22:23:39.068Z,100419.81
2023-01-04T22:26:07.524Z,100423.91
2023-01-04T22:28:37.217Z,100428.13
2023-01-04T22:31:07.259Z,100425.06
2023-01-04T22:33:41.766Z,100428.41
2023-01-04T22:36:22.511Z,100439.34
2023-01-04T22:39:01.371Z,100437.00
2023-01-04T22:41:36.237Z,100439.31
2023-01-04T22:44:11.705Z,100446.41
2023-01-04T22:46:46.644Z,100440.47
2023-01-04T22:49:21.567Z,100444.53
2023-01-04T22:51:51.171Z,100444.69
2023-01-04T22:54:24.303Z,100449.53
2023-01-04T22:56:58.468Z,100450.72
2023-01-04T22:59:29.880Z,100455.81
2023-01-04T23:02:03.704Z,100455.25
2023-01-04T23:04:39.064Z,100459.16
2023-01-04T23:07:13.740Z,100466.59
2023-01-04T23:09:50.872Z,100466.75
2023-01-04T23:12:25.083Z,100472.81
2023-01-04T23:14:59.224Z,100475.34
2023-01-04T23:17:33.380Z,100469.78
2023-01-04T23:20:10.508Z,100476.88
2023-01-04T23:22:45.020Z,100465.44
2023-01-04T23:25:15.618Z,100470.50
2023-01-04T23:27:46.525Z,100465.09
2023-01-04T23:30:22.002Z,100476.22
2023-01-04T23:32:56.964Z,100476.00
2023-01-04T23:35:29.371Z,100476.97
2023-01-04T23:38:03.127Z,100479.69
2023-01-04T23:40:40.127Z,100469.44
2023-01-04T23:43:14.083Z,100479.38
2023-01-04T23:45:48.436Z,100467.75
2023-01-04T23:48:23.953Z,100461.84
2023-01-04T23:50:59.739Z,100461.50
2023-01-04T23:53:32.690Z,100470.97
2023-01-04T23:56:11.943Z,100461.34
2023-01-04T23:58:46.297Z,100457.50
